sensor_id;sensor_type;location;lat;lon;timestamp;P1;durP1;ratioP1;P2;durP2;ratioP2
31238;SDS011;17871;31.584;74.450;2023-03-17T06:32:30;24.20;;;14.60;;
31238;SDS011;17871;31.584;74.450;2023-03-17T06:35:01;21.27;;;13.80;;
31238;SDS011;17871;31.584;74.450;2023-03-17T06:37:32;22.58;;;13.85;;
31238;SDS011;17871;31.584;74.450;2023-03-17T06:40:06;29.25;;;14.23;;
31238;SDS011;17871;31.584;74.450;2023-03-17T06:42:37;26.20;;;14.43;;
31238;SDS011;17871;31.584;74.450;2023-03-17T06:45:10;22.02;;;13.60;;
31238;SDS011;17871;31.584;74.450;2023-03-17T06:47:40;21.30;;;15.02;;
31238;SDS011;17871;31.584;74.450;2023-03-17T06:50:09;24.02;;;14.25;;
31238;SDS011;17871;31.584;74.450;2023-03-17T06:52:39;22.52;;;13.07;;
31238;SDS011;17871;31.584;74.450;2023-03-17T06:55:08;21.08;;;12.73;;
31238;SDS011;17871;31.584;74.450;2023-03-17T06:57:37;25.33;;;12.80;;
31238;SDS011;17871;31.584;74.450;2023-03-17T07:00:06;21.73;;;11.95;;
31238;SDS011;17871;31.584;74.450;2023-03-17T07:02:36;22.08;;;12.57;;
31238;SDS011;17871;31.584;74.450;2023-03-17T07:05:06;18.77;;;11.52;;
31238;SDS011;17871;31.584;74.450;2023-03-17T07:07:35;18.70;;;12.80;;
31238;SDS011;17871;31.584;74.450;2023-03-17T07:10:04;23.02;;;12.32;;
31238;SDS011;17871;31.584;74.450;2023-03-17T07:12:33;23.77;;;15.55;;
31238;SDS011;17871;31.584;74.450;2023-03-17T07:15:03;23.90;;;15.00;;
31238;SDS011;17871;31.584;74.450;2023-03-17T07:17:32;24.80;;;14.48;;
31238;SDS011;17871;31.584;74.450;2023-03-17T07:20:01;27.60;;;14.82;;
31238;SDS011;17871;31.584;74.450;2023-03-17T07:22:30;23.67;;;13.27;;
31238;SDS011;17871;31.584;74.450;2023-03-17T07:24:59;22.83;;;13.20;;
31238;SDS011;17871;31.584;74.450;2023-03-17T07:27:28;34.28;;;17.33;;
31238;SDS011;17871;31.584;74.450;2023-03-17T07:29:58;41.42;;;18.50;;
31238;SDS011;17871;31.584;74.450;2023-03-17T07:32:31;31.85;;;20.05;;
31238;SDS011;17871;31.584;74.450;2023-03-17T07:35:00;34.35;;;20.40;;
31238;SDS011;17871;31.584;74.450;2023-03-17T07:37:29;39.92;;;19.13;;
31238;SDS011;17871;31.584;74.450;2023-03-17T07:39:58;34.55;;;18.38;;
31238;SDS011;17871;31.584;74.450;2023-03-17T07:42:27;30.38;;;18.65;;
31238;SDS011;17871;31.584;74.450;2023-03-17T07:44:57;37.60;;;19.17;;
31238;SDS011;17871;31.584;74.450;2023-03-17T07:47:26;29.85;;;16.17;;
31238;SDS011;17871;31.584;74.450;2023-03-17T07:49:55;25.85;;;17.10;;
31238;SDS011;17871;31.584;74.450;2023-03-17T07:52:24;34.83;;;19.27;;
31238;SDS011;17871;31.584;74.450;2023-03-17T07:54:53;27.35;;;18.98;;
31238;SDS011;17871;31.584;74.450;2023-03-17T07:57:23;37.35;;;20.85;;
31238;SDS011;17871;31.584;74.450;2023-03-17T07:59:52;32.92;;;19.30;;
31238;SDS011;17871;31.584;74.450;2023-03-17T08:02:21;43.65;;;20.45;;
31238;SDS011;17871;31.584;74.450;2023-03-17T08:04:51;33.53;;;17.58;;
31238;SDS011;17871;31.584;74.450;2023-03-17T08:10:19;29.98;;;16.75;;
31238;SDS011;17871;31.584;74.450;2023-03-17T08:12:48;26.42;;;15.40;;
31238;SDS011;17871;31.584;74.450;2023-03-17T08:15:20;23.45;;;16.73;;
31238;SDS011;17871;31.584;74.450;2023-03-17T08:17:49;26.75;;;14.93;;
31238;SDS011;17871;31.584;74.450;2023-03-17T08:20:18;28.58;;;16.10;;
31238;SDS011;17871;31.584;74.450;2023-03-17T08:22:48;21.75;;;14.20;;
31238;SDS011;17871;31.584;74.450;2023-03-17T08:25:17;26.75;;;16.65;;
31238;SDS011;17871;31.584;74.450;2023-03-17T08:27:46;26.23;;;14.70;;
31238;SDS011;17871;31.584;74.450;2023-03-17T08:30:15;23.10;;;13.48;;
31238;SDS011;17871;31.584;74.450;2023-03-17T08:32:45;21.83;;;12.73;;
31238;SDS011;17871;31.584;74.450;2023-03-17T08:35:15;19.83;;;12.95;;
31238;SDS011;17871;31.584;74.450;2023-03-17T08:37:45;25.85;;;13.93;;
31238;SDS011;17871;31.584;74.450;2023-03-17T08:40:15;25.98;;;14.57;;
31238;SDS011;17871;31.584;74.450;2023-03-17T08:42:47;25.88;;;15.65;;
31238;SDS011;17871;31.584;74.450;2023-03-17T08:45:16;26.23;;;15.73;;
31238;SDS011;17871;31.584;74.450;2023-03-17T08:47:45;24.70;;;13.77;;
31238;SDS011;17871;31.584;74.450;2023-03-17T08:50:16;23.45;;;13.70;;
31238;SDS011;17871;31.584;74.450;2023-03-17T08:52:48;26.73;;;13.48;;
31238;SDS011;17871;31.584;74.450;2023-03-17T08:55:19;24.00;;;14.38;;
31238;SDS011;17871;31.584;74.450;2023-03-17T08:57:47;23.02;;;14.30;;
31238;SDS011;17871;31.584;74.450;2023-03-17T09:00:17;24.50;;;14.57;;
31238;SDS011;17871;31.584;74.450;2023-03-17T09:02:48;22.38;;;13.48;;
31238;SDS011;17871;31.584;74.450;2023-03-17T09:05:16;26.50;;;14.30;;
31238;SDS011;17871;31.584;74.450;2023-03-17T09:07:46;24.33;;;13.90;;
31238;SDS011;17871;31.584;74.450;2023-03-17T09:10:17;20.83;;;13.68;;
31238;SDS011;17871;31.584;74.450;2023-03-17T09:15:18;20.95;;;12.32;;
31238;SDS011;17871;31.584;74.450;2023-03-17T09:17:48;18.45;;;10.05;;
31238;SDS011;17871;31.584;74.450;2023-03-17T09:20:18;21.95;;;10.38;;
31238;SDS011;17871;31.584;74.450;2023-03-17T09:22:48;20.48;;;10.60;;
31238;SDS011;17871;31.584;74.450;2023-03-17T09:25:18;15.90;;;9.98;;
31238;SDS011;17871;31.584;74.450;2023-03-17T09:27:47;20.75;;;11.00;;
31238;SDS011;17871;31.584;74.450;2023-03-17T09:30:16;27.42;;;17.17;;
31238;SDS011;17871;31.584;74.450;2023-03-17T09:32:45;28.02;;;18.52;;
31238;SDS011;17871;31.584;74.450;2023-03-17T09:35:15;23.50;;;13.50;;
31238;SDS011;17871;31.584;74.450;2023-03-17T09:37:44;71.47;;;36.22;;
31238;SDS011;17871;31.584;74.450;2023-03-17T09:40:16;39.08;;;24.25;;
31238;SDS011;17871;31.584;74.450;2023-03-17T09:45:37;20.75;;;15.45;;
31238;SDS011;17871;31.584;74.450;2023-03-17T09:53:57;13.60;;;8.27;;
31238;SDS011;17871;31.584;74.450;2023-03-17T09:56:15;23.52;;;12.27;;
31238;SDS011;17871;31.584;74.450;2023-03-17T09:58:55;21.95;;;12.50;;
31238;SDS011;17871;31.584;74.450;2023-03-17T10:01:31;26.95;;;13.18;;
31238;SDS011;17871;31.584;74.450;2023-03-17T10:04:01;13.82;;;8.63;;
31238;SDS011;17871;31.584;74.450;2023-03-17T10:06:46;15.13;;;7.32;;
31238;SDS011;17871;31.584;74.450;2023-03-17T10:09:22;19.52;;;9.70;;
31238;SDS011;17871;31.584;74.450;2023-03-17T10:15:44;18.13;;;9.40;;
31238;SDS011;17871;31.584;74.450;2023-03-17T10:35:16;14.10;;;5.22;;
31238;SDS011;17871;31.584;74.450;2023-03-17T10:37:46;9.35;;;6.32;;
31238;SDS011;17871;31.584;74.450;2023-03-17T10:40:20;8.45;;;5.53;;
31238;SDS011;17871;31.584;74.450;2023-03-17T10:42:54;9.85;;;5.80;;
31238;SDS011;17871;31.584;74.450;2023-03-17T10:45:38;7.10;;;5.07;;
31238;SDS011;17871;31.584;74.450;2023-03-17T10:48:16;13.75;;;6.70;;
31238;SDS011;17871;31.584;74.450;2023-03-17T10:50:47;17.85;;;6.43;;
31238;SDS011;17871;31.584;74.450;2023-03-17T10:53:20;10.43;;;6.63;;
31238;SDS011;17871;31.584;74.450;2023-03-17T10:56:06;15.13;;;6.68;;
31238;SDS011;17871;31.584;74.450;2023-03-17T10:58:38;15.75;;;7.05;;
31238;SDS011;17871;31.584;74.450;2023-03-17T11:01:22;19.15;;;6.82;;
31238;SDS011;17871;31.584;74.450;2023-03-17T11:03:58;13.00;;;7.25;;
31238;SDS011;17871;31.584;74.450;2023-03-17T11:06:36;11.00;;;7.47;;
31238;SDS011;17871;31.584;74.450;2023-03-17T11:09:11;12.65;;;7.50;;
31238;SDS011;17871;31.584;74.450;2023-03-17T11:11:46;17.38;;;9.23;;
31238;SDS011;17871;31.584;74.450;2023-03-17T11:14:17;11.23;;;7.18;;
31238;SDS011;17871;31.584;74.450;2023-03-17T11:19:33;14.27;;;7.13;;
31238;SDS011;17871;31.584;74.450;2023-03-17T11:22:13;16.23;;;7.13;;
31238;SDS011;17871;31.584;74.450;2023-03-17T11:30:39;12.63;;;6.53;;
31238;SDS011;17871;31.584;74.450;2023-03-17T11:39:19;23.42;;;7.53;;
31238;SDS011;17871;31.584;74.450;2023-03-17T11:44:56;10.50;;;7.32;;
31238;SDS011;17871;31.584;74.450;2023-03-17T11:50:54;13.00;;;7.25;;
31238;SDS011;17871;31.584;74.450;2023-03-17T11:53:31;16.50;;;8.20;;
31238;SDS011;17871;31.584;74.450;2023-03-17T11:56:17;11.75;;;7.72;;
31238;SDS011;17871;31.584;74.450;2023-03-17T11:58:56;15.40;;;7.43;;
31238;SDS011;17871;31.584;74.450;2023-03-17T12:01:31;12.23;;;6.68;;
31238;SDS011;17871;31.584;74.450;2023-03-17T12:04:31;14.30;;;8.85;;
31238;SDS011;17871;31.584;74.450;2023-03-17T12:07:17;12.18;;;8.25;;
31238;SDS011;17871;31.584;74.450;2023-03-17T12:09:58;17.98;;;7.88;;
31238;SDS011;17871;31.584;74.450;2023-03-17T12:12:43;14.43;;;8.60;;
31238;SDS011;17871;31.584;74.450;2023-03-17T12:18:29;15.03;;;9.67;;
31238;SDS011;17871;31.584;74.450;2023-03-17T12:21:08;14.95;;;8.85;;
31238;SDS011;17871;31.584;74.450;2023-03-17T12:23:49;17.13;;;9.87;;
31238;SDS011;17871;31.584;74.450;2023-03-17T12:26:27;14.98;;;9.80;;
31238;SDS011;17871;31.584;74.450;2023-03-17T12:32:17;22.48;;;11.90;;
31238;SDS011;17871;31.584;74.450;2023-03-17T12:35:24;15.10;;;9.75;;
31238;SDS011;17871;31.584;74.450;2023-03-17T12:37:59;17.23;;;10.30;;
31238;SDS011;17871;31.584;74.450;2023-03-17T12:40:53;17.08;;;9.25;;
31238;SDS011;17871;31.584;74.450;2023-03-17T12:55:25;17.95;;;12.05;;
31238;SDS011;17871;31.584;74.450;2023-03-17T12:58:02;18.40;;;10.45;;
31238;SDS011;17871;31.584;74.450;2023-03-17T13:00:47;22.02;;;11.60;;
31238;SDS011;17871;31.584;74.450;2023-03-17T13:03:26;16.70;;;11.57;;
31238;SDS011;17871;31.584;74.450;2023-03-17T13:06:03;15.93;;;9.82;;
31238;SDS011;17871;31.584;74.450;2023-03-17T13:08:36;13.68;;;10.02;;
31238;SDS011;17871;31.584;74.450;2023-03-17T13:11:54;16.40;;;10.73;;
31238;SDS011;17871;31.584;74.450;2023-03-17T13:19:46;16.30;;;9.50;;
31238;SDS011;17871;31.584;74.450;2023-03-17T13:22:30;16.20;;;10.95;;
31238;SDS011;17871;31.584;74.450;2023-03-17T13:27:43;20.13;;;11.85;;
31238;SDS011;17871;31.584;74.450;2023-03-17T13:51:55;38.22;;;15.43;;
31238;SDS011;17871;31.584;74.450;2023-03-17T13:54:39;29.10;;;14.98;;
31238;SDS011;17871;31.584;74.450;2023-03-17T13:57:21;23.95;;;14.73;;
31238;SDS011;17871;31.584;74.450;2023-03-17T14:00:16;26.20;;;15.45;;
31238;SDS011;17871;31.584;74.450;2023-03-17T14:02:48;28.85;;;17.50;;
31238;SDS011;17871;31.584;74.450;2023-03-17T14:05:37;34.35;;;18.05;;
31238;SDS011;17871;31.584;74.450;2023-03-17T14:08:28;42.92;;;20.35;;
31238;SDS011;17871;31.584;74.450;2023-03-17T14:11:15;42.03;;;20.98;;
31238;SDS011;17871;31.584;74.450;2023-03-17T14:17:18;35.10;;;24.15;;
31238;SDS011;17871;31.584;74.450;2023-03-17T14:20:01;38.03;;;22.95;;
31238;SDS011;17871;31.584;74.450;2023-03-17T14:22:51;37.83;;;23.13;;
31238;SDS011;17871;31.584;74.450;2023-03-17T14:25:32;35.45;;;20.48;;
31238;SDS011;17871;31.584;74.450;2023-03-17T14:28:06;32.38;;;19.40;;
31238;SDS011;17871;31.584;74.450;2023-03-17T14:30:41;33.22;;;18.98;;
31238;SDS011;17871;31.584;74.450;2023-03-17T14:33:20;33.22;;;19.25;;
31238;SDS011;17871;31.584;74.450;2023-03-17T14:35:51;34.38;;;21.20;;
31238;SDS011;17871;31.584;74.450;2023-03-17T14:38:26;41.78;;;22.20;;
31238;SDS011;17871;31.584;74.450;2023-03-17T14:41:06;38.75;;;20.83;;
31238;SDS011;17871;31.584;74.450;2023-03-17T14:43:43;35.15;;;19.10;;
31238;SDS011;17871;31.584;74.450;2023-03-17T14:46:14;42.95;;;20.40;;
31238;SDS011;17871;31.584;74.450;2023-03-17T14:48:50;41.05;;;20.67;;
31238;SDS011;17871;31.584;74.450;2023-03-17T14:51:31;41.55;;;23.42;;
31238;SDS011;17871;31.584;74.450;2023-03-17T14:54:13;43.17;;;22.83;;
31238;SDS011;17871;31.584;74.450;2023-03-17T14:56:50;41.03;;;20.15;;
31238;SDS011;17871;31.584;74.450;2023-03-17T14:59:42;37.55;;;19.88;;
31238;SDS011;17871;31.584;74.450;2023-03-17T15:02:35;28.05;;;18.25;;
31238;SDS011;17871;31.584;74.450;2023-03-17T15:05:20;41.80;;;19.15;;
31238;SDS011;17871;31.584;74.450;2023-03-17T15:07:56;46.75;;;21.05;;
31238;SDS011;17871;31.584;74.450;2023-03-17T15:10:25;36.83;;;19.38;;
31238;SDS011;17871;31.584;74.450;2023-03-17T15:13:01;26.50;;;16.65;;
31238;SDS011;17871;31.584;74.450;2023-03-17T15:15:36;32.85;;;17.42;;
31238;SDS011;17871;31.584;74.450;2023-03-17T15:18:12;40.42;;;19.15;;
31238;SDS011;17871;31.584;74.450;2023-03-17T15:20:42;42.75;;;19.63;;
31238;SDS011;17871;31.584;74.450;2023-03-17T15:25:55;42.95;;;23.05;;
31238;SDS011;17871;31.584;74.450;2023-03-17T15:28:25;52.88;;;25.65;;
31238;SDS011;17871;31.584;74.450;2023-03-17T15:31:10;66.80;;;26.20;;
31238;SDS011;17871;31.584;74.450;2023-03-17T15:33:40;76.35;;;41.67;;
31238;SDS011;17871;31.584;74.450;2023-03-17T15:36:13;66.22;;;33.85;;
31238;SDS011;17871;31.584;74.450;2023-03-17T15:38:58;93.15;;;39.97;;
31238;SDS011;17871;31.584;74.450;2023-03-17T15:41:27;80.93;;;38.90;;
31238;SDS011;17871;31.584;74.450;2023-03-17T15:43:56;92.30;;;39.88;;
31238;SDS011;17871;31.584;74.450;2023-03-17T15:46:26;115.78;;;58.78;;
31238;SDS011;17871;31.584;74.450;2023-03-17T15:48:58;82.25;;;39.65;;
31238;SDS011;17871;31.584;74.450;2023-03-17T15:51:27;98.80;;;41.17;;
31238;SDS011;17871;31.584;74.450;2023-03-17T15:53:56;93.13;;;39.90;;
31238;SDS011;17871;31.584;74.450;2023-03-17T15:56:25;94.13;;;44.40;;
31238;SDS011;17871;31.584;74.450;2023-03-17T15:58:54;97.18;;;43.15;;
31238;SDS011;17871;31.584;74.450;2023-03-17T16:01:23;117.38;;;46.75;;
31238;SDS011;17871;31.584;74.450;2023-03-17T16:03:54;118.60;;;49.50;;
31238;SDS011;17871;31.584;74.450;2023-03-17T16:06:26;116.00;;;48.20;;
31238;SDS011;17871;31.584;74.450;2023-03-17T16:08:55;132.85;;;47.38;;
31238;SDS011;17871;31.584;74.450;2023-03-17T16:11:24;77.13;;;40.20;;
31238;SDS011;17871;31.584;74.450;2023-03-17T16:13:56;78.63;;;37.40;;
31238;SDS011;17871;31.584;74.450;2023-03-17T16:19:13;72.35;;;36.03;;
31238;SDS011;17871;31.584;74.450;2023-03-17T16:21:49;82.13;;;39.40;;
31238;SDS011;17871;31.584;74.450;2023-03-17T16:24:20;67.40;;;30.52;;
31238;SDS011;17871;31.584;74.450;2023-03-17T16:26:51;54.58;;;27.65;;
31238;SDS011;17871;31.584;74.450;2023-03-17T16:29:20;55.45;;;25.30;;
31238;SDS011;17871;31.584;74.450;2023-03-17T16:31:49;57.33;;;30.45;;
31238;SDS011;17871;31.584;74.450;2023-03-17T16:34:19;69.93;;;32.33;;
31238;SDS011;17871;31.584;74.450;2023-03-17T16:36:50;76.78;;;31.42;;
31238;SDS011;17871;31.584;74.450;2023-03-17T16:39:22;56.83;;;28.98;;
31238;SDS011;17871;31.584;74.450;2023-03-17T16:41:51;78.63;;;39.30;;
31238;SDS011;17871;31.584;74.450;2023-03-17T16:44:20;78.40;;;36.55;;
31238;SDS011;17871;31.584;74.450;2023-03-17T16:46:50;54.40;;;30.33;;
31238;SDS011;17871;31.584;74.450;2023-03-17T16:49:19;37.20;;;21.88;;
31238;SDS011;17871;31.584;74.450;2023-03-17T16:51:49;43.83;;;21.27;;
31238;SDS011;17871;31.584;74.450;2023-03-17T16:54:18;32.25;;;19.90;;
31238;SDS011;17871;31.584;74.450;2023-03-17T16:56:47;41.75;;;21.52;;
31238;SDS011;17871;31.584;74.450;2023-03-17T16:59:19;48.83;;;26.25;;
31238;SDS011;17871;31.584;74.450;2023-03-17T17:01:51;51.13;;;25.90;;
31238;SDS011;17871;31.584;74.450;2023-03-17T17:04:22;42.63;;;24.40;;
31238;SDS011;17871;31.584;74.450;2023-03-17T17:06:53;48.17;;;25.50;;
31238;SDS011;17871;31.584;74.450;2023-03-17T17:09:23;60.65;;;30.20;;
31238;SDS011;17871;31.584;74.450;2023-03-17T17:11:52;58.05;;;31.40;;
31238;SDS011;17871;31.584;74.450;2023-03-17T17:14:21;74.65;;;32.58;;
31238;SDS011;17871;31.584;74.450;2023-03-17T17:16:49;53.70;;;31.35;;
31238;SDS011;17871;31.584;74.450;2023-03-17T17:19:18;65.78;;;32.47;;
31238;SDS011;17871;31.584;74.450;2023-03-17T17:21:51;62.85;;;32.05;;
31238;SDS011;17871;31.584;74.450;2023-03-17T17:24:19;55.05;;;27.02;;
31238;SDS011;17871;31.584;74.450;2023-03-17T17:26:48;59.65;;;28.30;;
31238;SDS011;17871;31.584;74.450;2023-03-17T17:29:17;53.03;;;25.73;;
31238;SDS011;17871;31.584;74.450;2023-03-17T17:31:46;49.03;;;27.15;;
31238;SDS011;17871;31.584;74.450;2023-03-17T17:34:15;62.17;;;32.38;;
31238;SDS011;17871;31.584;74.450;2023-03-17T17:36:44;60.58;;;31.80;;
31238;SDS011;17871;31.584;74.450;2023-03-17T17:39:13;60.60;;;32.95;;
31238;SDS011;17871;31.584;74.450;2023-03-17T17:41:42;65.43;;;33.70;;
31238;SDS011;17871;31.584;74.450;2023-03-17T17:44:11;82.57;;;39.20;;
31238;SDS011;17871;31.584;74.450;2023-03-17T17:46:40;77.57;;;39.13;;
31238;SDS011;17871;31.584;74.450;2023-03-17T17:49:10;77.88;;;41.03;;
31238;SDS011;17871;31.584;74.450;2023-03-17T17:51:40;79.50;;;40.03;;
31238;SDS011;17871;31.584;74.450;2023-03-17T17:54:08;90.75;;;41.03;;
31238;SDS011;17871;31.584;74.450;2023-03-17T17:56:38;107.70;;;44.15;;
31238;SDS011;17871;31.584;74.450;2023-03-17T17:59:13;86.60;;;42.03;;
31238;SDS011;17871;31.584;74.450;2023-03-17T18:01:42;91.43;;;45.90;;
31238;SDS011;17871;31.584;74.450;2023-03-17T18:04:11;100.75;;;45.58;;
31238;SDS011;17871;31.584;74.450;2023-03-17T18:06:40;92.43;;;45.58;;
31238;SDS011;17871;31.584;74.450;2023-03-17T18:09:09;88.32;;;43.50;;
31238;SDS011;17871;31.584;74.450;2023-03-17T18:11:38;88.72;;;42.45;;
31238;SDS011;17871;31.584;74.450;2023-03-17T18:14:09;95.45;;;41.63;;
31238;SDS011;17871;31.584;74.450;2023-03-17T18:16:38;72.40;;;40.63;;
31238;SDS011;17871;31.584;74.450;2023-03-17T18:19:09;88.68;;;39.67;;
31238;SDS011;17871;31.584;74.450;2023-03-17T18:21:40;82.10;;;38.00;;
31238;SDS011;17871;31.584;74.450;2023-03-17T18:24:09;84.55;;;41.10;;
31238;SDS011;17871;31.584;74.450;2023-03-17T18:26:38;96.72;;;41.33;;
31238;SDS011;17871;31.584;74.450;2023-03-17T18:29:08;99.50;;;41.53;;
31238;SDS011;17871;31.584;74.450;2023-03-17T18:31:43;103.88;;;44.10;;
31238;SDS011;17871;31.584;74.450;2023-03-17T18:34:19;100.40;;;45.85;;
31238;SDS011;17871;31.584;74.450;2023-03-17T18:36:50;103.88;;;45.33;;
31238;SDS011;17871;31.584;74.450;2023-03-17T18:39:22;84.35;;;43.53;;
31238;SDS011;17871;31.584;74.450;2023-03-17T18:41:51;103.40;;;43.20;;
31238;SDS011;17871;31.584;74.450;2023-03-17T18:44:21;82.10;;;42.03;;
31238;SDS011;17871;31.584;74.450;2023-03-17T18:46:52;82.93;;;42.00;;
31238;SDS011;17871;31.584;74.450;2023-03-17T18:49:20;86.85;;;39.78;;
31238;SDS011;17871;31.584;74.450;2023-03-17T18:51:53;86.85;;;43.20;;
31238;SDS011;17871;31.584;74.450;2023-03-17T18:54:24;87.25;;;42.20;;
31238;SDS011;17871;31.584;74.450;2023-03-17T18:56:54;88.00;;;40.85;;
31238;SDS011;17871;31.584;74.450;2023-03-17T18:59:23;89.70;;;44.33;;
31238;SDS011;17871;31.584;74.450;2023-03-17T19:01:52;88.85;;;42.10;;
31238;SDS011;17871;31.584;74.450;2023-03-17T19:04:21;102.78;;;44.85;;
31238;SDS011;17871;31.584;74.450;2023-03-17T19:06:50;89.82;;;43.55;;
31238;SDS011;17871;31.584;74.450;2023-03-17T19:09:19;94.63;;;41.90;;
31238;SDS011;17871;31.584;74.450;2023-03-17T19:11:49;76.15;;;42.13;;
31238;SDS011;17871;31.584;74.450;2023-03-17T19:14:18;83.15;;;41.75;;
31238;SDS011;17871;31.584;74.450;2023-03-17T19:16:47;72.22;;;37.67;;
31238;SDS011;17871;31.584;74.450;2023-03-17T19:19:16;71.25;;;35.17;;
31238;SDS011;17871;31.584;74.450;2023-03-17T19:21:44;70.35;;;35.00;;
31238;SDS011;17871;31.584;74.450;2023-03-17T19:24:13;63.22;;;33.90;;
31238;SDS011;17871;31.584;74.450;2023-03-17T19:26:42;62.72;;;32.47;;
31238;SDS011;17871;31.584;74.450;2023-03-17T19:29:11;69.32;;;34.53;;
31238;SDS011;17871;31.584;74.450;2023-03-17T19:31:42;70.15;;;34.35;;
31238;SDS011;17871;31.584;74.450;2023-03-17T19:34:14;68.97;;;34.30;;
31238;SDS011;17871;31.584;74.450;2023-03-17T19:36:43;69.93;;;34.15;;
31238;SDS011;17871;31.584;74.450;2023-03-17T19:39:15;78.13;;;33.95;;
31238;SDS011;17871;31.584;74.450;2023-03-17T19:41:44;73.55;;;35.63;;
31238;SDS011;17871;31.584;74.450;2023-03-17T19:44:15;65.88;;;34.30;;
31238;SDS011;17871;31.584;74.450;2023-03-17T19:46:44;72.57;;;35.55;;
31238;SDS011;17871;31.584;74.450;2023-03-17T19:49:13;69.47;;;35.45;;
31238;SDS011;17871;31.584;74.450;2023-03-17T19:51:42;68.50;;;34.47;;
31238;SDS011;17871;31.584;74.450;2023-03-17T19:54:11;75.90;;;35.63;;
31238;SDS011;17871;31.584;74.450;2023-03-17T19:56:40;71.53;;;34.30;;
31238;SDS011;17871;31.584;74.450;2023-03-17T19:59:10;81.60;;;38.03;;
31238;SDS011;17871;31.584;74.450;2023-03-17T20:01:39;62.83;;;32.03;;
31238;SDS011;17871;31.584;74.450;2023-03-17T20:04:09;62.33;;;31.75;;
31238;SDS011;17871;31.584;74.450;2023-03-17T20:06:41;54.57;;;30.83;;
31238;SDS011;17871;31.584;74.450;2023-03-17T20:09:10;59.65;;;32.45;;
31238;SDS011;17871;31.584;74.450;2023-03-17T20:11:39;68.35;;;35.15;;
31238;SDS011;17871;31.584;74.450;2023-03-17T20:14:08;67.30;;;35.00;;
31238;SDS011;17871;31.584;74.450;2023-03-17T20:16:37;65.53;;;35.95;;
31238;SDS011;17871;31.584;74.450;2023-03-17T20:19:07;56.78;;;31.05;;
31238;SDS011;17871;31.584;74.450;2023-03-17T20:21:36;61.42;;;30.00;;
31238;SDS011;17871;31.584;74.450;2023-03-17T20:24:05;70.38;;;32.40;;
31238;SDS011;17871;31.584;74.450;2023-03-17T20:26:35;64.32;;;30.60;;
31238;SDS011;17871;31.584;74.450;2023-03-17T20:29:04;66.18;;;31.45;;
31238;SDS011;17871;31.584;74.450;2023-03-17T20:31:35;74.05;;;33.60;;
31238;SDS011;17871;31.584;74.450;2023-03-17T20:34:06;75.07;;;32.90;;
31238;SDS011;17871;31.584;74.450;2023-03-17T20:36:35;67.93;;;33.67;;
31238;SDS011;17871;31.584;74.450;2023-03-17T20:39:09;65.38;;;33.78;;
31238;SDS011;17871;31.584;74.450;2023-03-17T20:44:10;64.53;;;31.05;;
31238;SDS011;17871;31.584;74.450;2023-03-17T20:46:39;66.93;;;32.22;;
31238;SDS011;17871;31.584;74.450;2023-03-17T20:49:09;60.97;;;33.42;;
31238;SDS011;17871;31.584;74.450;2023-03-17T20:51:39;69.47;;;34.85;;
31238;SDS011;17871;31.584;74.450;2023-03-17T20:54:08;71.95;;;34.97;;
31238;SDS011;17871;31.584;74.450;2023-03-17T20:56:38;63.05;;;35.95;;
31238;SDS011;17871;31.584;74.450;2023-03-17T20:59:07;57.10;;;30.77;;
31238;SDS011;17871;31.584;74.450;2023-03-17T21:01:36;60.72;;;30.42;;
31238;SDS011;17871;31.584;74.450;2023-03-17T21:04:11;57.72;;;31.15;;
31238;SDS011;17871;31.584;74.450;2023-03-17T21:06:42;54.15;;;29.55;;
31238;SDS011;17871;31.584;74.450;2023-03-17T21:09:11;57.40;;;25.52;;
31238;SDS011;17871;31.584;74.450;2023-03-17T21:11:40;61.72;;;27.25;;
31238;SDS011;17871;31.584;74.450;2023-03-17T21:14:10;52.92;;;28.42;;
31238;SDS011;17871;31.584;74.450;2023-03-17T21:16:41;59.37;;;29.23;;
31238;SDS011;17871;31.584;74.450;2023-03-17T21:19:12;57.25;;;28.63;;
31238;SDS011;17871;31.584;74.450;2023-03-17T21:21:42;65.38;;;33.72;;
31238;SDS011;17871;31.584;74.450;2023-03-17T21:24:20;68.05;;;31.63;;
31238;SDS011;17871;31.584;74.450;2023-03-17T21:26:53;59.22;;;31.02;;
31238;SDS011;17871;31.584;74.450;2023-03-17T21:29:21;60.40;;;29.75;;
31238;SDS011;17871;31.584;74.450;2023-03-17T21:31:51;58.30;;;29.40;;
31238;SDS011;17871;31.584;74.450;2023-03-17T21:34:20;62.60;;;29.73;;
31238;SDS011;17871;31.584;74.450;2023-03-17T21:36:49;60.55;;;29.10;;
31238;SDS011;17871;31.584;74.450;2023-03-17T21:39:19;89.00;;;34.65;;
31238;SDS011;17871;31.584;74.450;2023-03-17T21:41:48;87.47;;;36.50;;
31238;SDS011;17871;31.584;74.450;2023-03-17T21:44:17;69.82;;;36.22;;
31238;SDS011;17871;31.584;74.450;2023-03-17T21:46:47;77.45;;;36.38;;
31238;SDS011;17871;31.584;74.450;2023-03-17T21:49:17;75.55;;;35.15;;
31238;SDS011;17871;31.584;74.450;2023-03-17T21:51:46;76.40;;;35.05;;
31238;SDS011;17871;31.584;74.450;2023-03-17T21:54:15;75.93;;;38.05;;
31238;SDS011;17871;31.584;74.450;2023-03-17T21:56:44;89.45;;;40.13;;
31238;SDS011;17871;31.584;74.450;2023-03-17T21:59:15;82.30;;;39.47;;
31238;SDS011;17871;31.584;74.450;2023-03-17T22:01:46;86.53;;;41.08;;
31238;SDS011;17871;31.584;74.450;2023-03-17T22:04:19;100.85;;;45.60;;
31238;SDS011;17871;31.584;74.450;2023-03-17T22:06:49;104.13;;;49.17;;
31238;SDS011;17871;31.584;74.450;2023-03-17T22:09:19;112.85;;;49.53;;
31238;SDS011;17871;31.584;74.450;2023-03-17T22:11:48;108.75;;;47.63;;
31238;SDS011;17871;31.584;74.450;2023-03-17T22:14:17;95.38;;;46.55;;
31238;SDS011;17871;31.584;74.450;2023-03-17T22:16:47;99.35;;;45.10;;
31238;SDS011;17871;31.584;74.450;2023-03-17T22:19:16;91.55;;;41.92;;
31238;SDS011;17871;31.584;74.450;2023-03-17T22:21:47;79.82;;;40.53;;
31238;SDS011;17871;31.584;74.450;2023-03-17T22:24:17;84.35;;;41.63;;
31238;SDS011;17871;31.584;74.450;2023-03-17T22:26:46;73.18;;;37.50;;
31238;SDS011;17871;31.584;74.450;2023-03-17T22:29:15;81.28;;;40.17;;
31238;SDS011;17871;31.584;74.450;2023-03-17T22:31:45;79.90;;;39.90;;
31238;SDS011;17871;31.584;74.450;2023-03-17T22:34:14;90.10;;;43.65;;
31238;SDS011;17871;31.584;74.450;2023-03-17T22:36:44;99.35;;;47.25;;
31238;SDS011;17871;31.584;74.450;2023-03-17T22:39:13;135.38;;;52.42;;
31238;SDS011;17871;31.584;74.450;2023-03-17T22:41:42;120.63;;;51.17;;
31238;SDS011;17871;31.584;74.450;2023-03-17T22:44:11;140.65;;;54.35;;
31238;SDS011;17871;31.584;74.450;2023-03-17T22:46:40;148.20;;;55.65;;
31238;SDS011;17871;31.584;74.450;2023-03-17T22:49:09;133.20;;;54.03;;
31238;SDS011;17871;31.584;74.450;2023-03-17T22:51:38;133.73;;;58.03;;
31238;SDS011;17871;31.584;74.450;2023-03-17T22:54:10;116.20;;;51.53;;
31238;SDS011;17871;31.584;74.450;2023-03-17T22:56:39;131.18;;;52.47;;
31238;SDS011;17871;31.584;74.450;2023-03-17T22:59:08;125.85;;;54.65;;
31238;SDS011;17871;31.584;74.450;2023-03-17T23:01:37;140.35;;;54.33;;
31238;SDS011;17871;31.584;74.450;2023-03-17T23:04:06;110.95;;;49.45;;